sensor_id;sensor_type;location;lat;lon;timestamp;P1;durP1;ratioP1;P2;durP2;ratioP2
10465;SDS011;5280;42.600;23.556;2022-08-01T00:02:00;4.00;;;3.70;;
10465;SDS011;5280;42.600;23.556;2022-08-01T00:04:27;4.30;;;4.00;;
10465;SDS011;5280;42.600;23.556;2022-08-01T00:06:56;4.37;;;4.03;;
10465;SDS011;5280;42.600;23.556;2022-08-01T00:09:24;5.00;;;4.13;;
10465;SDS011;5280;42.600;23.556;2022-08-01T00:11:51;4.20;;;3.90;;
10465;SDS011;5280;42.600;23.556;2022-08-01T00:14:18;5.00;;;4.03;;
10465;SDS011;5280;42.600;23.556;2022-08-01T00:16:45;5.83;;;3.90;;
10465;SDS011;5280;42.600;23.556;2022-08-01T00:19:12;4.80;;;4.40;;
10465;SDS011;5280;42.600;23.556;2022-08-01T00:21:39;4.57;;;4.07;;
10465;SDS011;5280;42.600;23.556;2022-08-01T00:24:08;4.70;;;4.20;;
10465;SDS011;5280;42.600;23.556;2022-08-01T00:26:35;5.07;;;4.30;;
10465;SDS011;5280;42.600;23.556;2022-08-01T00:29:02;5.20;;;4.70;;
10465;SDS011;5280;42.600;23.556;2022-08-01T00:31:29;4.90;;;4.43;;
10465;SDS011;5280;42.600;23.556;2022-08-01T00:33:56;5.07;;;4.70;;
10465;SDS011;5280;42.600;23.556;2022-08-01T00:36:23;4.70;;;4.40;;
10465;SDS011;5280;42.600;23.556;2022-08-01T00:38:50;5.20;;;4.57;;
10465;SDS011;5280;42.600;23.556;2022-08-01T00:41:19;5.03;;;4.70;;
10465;SDS011;5280;42.600;23.556;2022-08-01T00:43:46;6.03;;;5.53;;
10465;SDS011;5280;42.600;23.556;2022-08-01T00:46:13;5.30;;;4.90;;
10465;SDS011;5280;42.600;23.556;2022-08-01T00:48:40;5.50;;;5.10;;
10465;SDS011;5280;42.600;23.556;2022-08-01T00:51:08;5.40;;;5.00;;
10465;SDS011;5280;42.600;23.556;2022-08-01T00:53:35;5.27;;;4.87;;
10465;SDS011;5280;42.600;23.556;2022-08-01T00:56:02;6.37;;;5.77;;
10465;SDS011;5280;42.600;23.556;2022-08-01T00:58:31;5.43;;;4.93;;
10465;SDS011;5280;42.600;23.556;2022-08-01T01:00:59;6.03;;;5.40;;
10465;SDS011;5280;42.600;23.556;2022-08-01T01:03:26;5.47;;;4.97;;
10465;SDS011;5280;42.600;23.556;2022-08-01T01:05:56;5.40;;;4.90;;
10465;SDS011;5280;42.600;23.556;2022-08-01T01:08:32;6.87;;;5.23;;
10465;SDS011;5280;42.600;23.556;2022-08-01T01:11:08;5.27;;;4.87;;
10465;SDS011;5280;42.600;23.556;2022-08-01T01:13:43;6.17;;;5.40;;
10465;SDS011;5280;42.600;23.556;2022-08-01T01:16:15;5.63;;;5.13;;
10465;SDS011;5280;42.600;23.556;2022-08-01T01:18:45;7.37;;;5.50;;
10465;SDS011;5280;42.600;23.556;2022-08-01T01:21:24;4.90;;;4.50;;
10465;SDS011;5280;42.600;23.556;2022-08-01T01:24:04;5.33;;;5.03;;
10465;SDS011;5280;42.600;23.556;2022-08-01T01:26:45;6.63;;;5.40;;
10465;SDS011;5280;42.600;23.556;2022-08-01T01:29:20;5.23;;;4.73;;
10465;SDS011;5280;42.600;23.556;2022-08-01T01:31:54;5.40;;;5.00;;
10465;SDS011;5280;42.600;23.556;2022-08-01T01:34:25;5.00;;;4.70;;
10465;SDS011;5280;42.600;23.556;2022-08-01T01:36:55;8.60;;;5.03;;
10465;SDS011;5280;42.600;23.556;2022-08-01T01:39:24;5.23;;;4.80;;
10465;SDS011;5280;42.600;23.556;2022-08-01T01:41:53;4.83;;;4.53;;
10465;SDS011;5280;42.600;23.556;2022-08-01T01:44:24;4.70;;;4.30;;
10465;SDS011;5280;42.600;23.556;2022-08-01T01:46:53;4.37;;;3.97;;
10465;SDS011;5280;42.600;23.556;2022-08-01T01:49:21;4.07;;;3.87;;
10465;SDS011;5280;42.600;23.556;2022-08-01T01:51:50;3.70;;;3.50;;
10465;SDS011;5280;42.600;23.556;2022-08-01T01:54:19;4.23;;;3.70;;
10465;SDS011;5280;42.600;23.556;2022-08-01T01:56:48;4.50;;;3.23;;
10465;SDS011;5280;42.600;23.556;2022-08-01T01:59:18;3.40;;;2.90;;
10465;SDS011;5280;42.600;23.556;2022-08-01T02:01:51;4.93;;;3.40;;
10465;SDS011;5280;42.600;23.556;2022-08-01T02:04:21;5.10;;;3.00;;
10465;SDS011;5280;42.600;23.556;2022-08-01T02:06:51;3.53;;;2.63;;
10465;SDS011;5280;42.600;23.556;2022-08-01T02:09:20;4.30;;;2.60;;
10465;SDS011;5280;42.600;23.556;2022-08-01T02:11:49;3.20;;;2.77;;
10465;SDS011;5280;42.600;23.556;2022-08-01T02:14:18;5.47;;;2.40;;
10465;SDS011;5280;42.600;23.556;2022-08-01T02:16:47;4.33;;;2.60;;
10465;SDS011;5280;42.600;23.556;2022-08-01T02:19:19;4.37;;;2.40;;
10465;SDS011;5280;42.600;23.556;2022-08-01T02:21:47;3.40;;;2.30;;
10465;SDS011;5280;42.600;23.556;2022-08-01T02:24:20;3.67;;;2.03;;
10465;SDS011;5280;42.600;23.556;2022-08-01T02:26:52;2.33;;;2.10;;
10465;SDS011;5280;42.600;23.556;2022-08-01T02:29:24;2.10;;;2.00;;
10465;SDS011;5280;42.600;23.556;2022-08-01T02:32:00;2.73;;;1.80;;
10465;SDS011;5280;42.600;23.556;2022-08-01T02:34:43;4.33;;;1.93;;
10465;SDS011;5280;42.600;23.556;2022-08-01T02:37:22;3.33;;;1.90;;
10465;SDS011;5280;42.600;23.556;2022-08-01T02:39:53;4.77;;;1.80;;
10465;SDS011;5280;42.600;23.556;2022-08-01T02:42:21;2.90;;;2.00;;
10465;SDS011;5280;42.600;23.556;2022-08-01T02:44:52;1.87;;;1.70;;
10465;SDS011;5280;42.600;23.556;2022-08-01T02:47:22;2.27;;;1.60;;
10465;SDS011;5280;42.600;23.556;2022-08-01T02:49:51;3.03;;;1.90;;
10465;SDS011;5280;42.600;23.556;2022-08-01T02:52:21;1.90;;;1.80;;
10465;SDS011;5280;42.600;23.556;2022-08-01T02:54:53;2.50;;;2.40;;
10465;SDS011;5280;42.600;23.556;2022-08-01T02:57:24;2.63;;;2.30;;
10465;SDS011;5280;42.600;23.556;2022-08-01T02:59:52;3.73;;;3.40;;
10465;SDS011;5280;42.600;23.556;2022-08-01T03:02:23;3.90;;;3.60;;
10465;SDS011;5280;42.600;23.556;2022-08-01T03:04:50;3.83;;;2.80;;
10465;SDS011;5280;42.600;23.556;2022-08-01T03:07:18;3.07;;;2.60;;
10465;SDS011;5280;42.600;23.556;2022-08-01T03:09:49;3.60;;;3.27;;
10465;SDS011;5280;42.600;23.556;2022-08-01T03:12:17;3.10;;;2.90;;
10465;SDS011;5280;42.600;23.556;2022-08-01T03:14:49;2.80;;;2.60;;
10465;SDS011;5280;42.600;23.556;2022-08-01T03:17:20;3.57;;;2.90;;
10465;SDS011;5280;42.600;23.556;2022-08-01T03:19:51;2.80;;;2.60;;
10465;SDS011;5280;42.600;23.556;2022-08-01T03:22:20;2.60;;;2.40;;
10465;SDS011;5280;42.600;23.556;2022-08-01T03:24:52;2.80;;;2.60;;
10465;SDS011;5280;42.600;23.556;2022-08-01T03:27:23;2.80;;;2.10;;
10465;SDS011;5280;42.600;23.556;2022-08-01T03:29:51;2.33;;;1.83;;
10465;SDS011;5280;42.600;23.556;2022-08-01T03:32:26;2.03;;;1.93;;
10465;SDS011;5280;42.600;23.556;2022-08-01T03:34:54;2.00;;;1.90;;
10465;SDS011;5280;42.600;23.556;2022-08-01T03:37:25;2.13;;;1.60;;
10465;SDS011;5280;42.600;23.556;2022-08-01T03:39:57;1.67;;;1.57;;
10465;SDS011;5280;42.600;23.556;2022-08-01T03:42:28;1.97;;;1.83;;
10465;SDS011;5280;42.600;23.556;2022-08-01T03:44:59;2.27;;;1.80;;
10465;SDS011;5280;42.600;23.556;2022-08-01T03:47:33;2.07;;;1.97;;
10465;SDS011;5280;42.600;23.556;2022-08-01T03:50:01;1.80;;;1.70;;
10465;SDS011;5280;42.600;23.556;2022-08-01T03:52:30;1.80;;;1.70;;
10465;SDS011;5280;42.600;23.556;2022-08-01T03:55:02;1.77;;;1.60;;
10465;SDS011;5280;42.600;23.556;2022-08-01T03:57:32;1.50;;;1.40;;
10465;SDS011;5280;42.600;23.556;2022-08-01T04:00:00;1.53;;;1.43;;
10465;SDS011;5280;42.600;23.556;2022-08-01T04:02:33;2.07;;;1.70;;
10465;SDS011;5280;42.600;23.556;2022-08-01T04:05:01;2.27;;;1.80;;
10465;SDS011;5280;42.600;23.556;2022-08-01T04:07:32;2.93;;;2.00;;
10465;SDS011;5280;42.600;23.556;2022-08-01T04:10:08;1.87;;;1.77;;
10465;SDS011;5280;42.600;23.556;2022-08-01T04:12:35;1.87;;;1.77;;
10465;SDS011;5280;42.600;23.556;2022-08-01T04:15:02;3.60;;;1.80;;
10465;SDS011;5280;42.600;23.556;2022-08-01T04:17:30;2.10;;;2.00;;
10465;SDS011;5280;42.600;23.556;2022-08-01T04:19:58;1.67;;;1.57;;
10465;SDS011;5280;42.600;23.556;2022-08-01T04:22:25;2.30;;;1.97;;
10465;SDS011;5280;42.600;23.556;2022-08-01T04:24:53;2.33;;;2.13;;
10465;SDS011;5280;42.600;23.556;2022-08-01T04:27:23;4.30;;;2.20;;
10465;SDS011;5280;42.600;23.556;2022-08-01T04:29:55;2.33;;;2.13;;
10465;SDS011;5280;42.600;23.556;2022-08-01T04:32:24;3.13;;;2.40;;
10465;SDS011;5280;42.600;23.556;2022-08-01T04:34:54;2.90;;;2.47;;
10465;SDS011;5280;42.600;23.556;2022-08-01T04:37:27;2.70;;;2.30;;
10465;SDS011;5280;42.600;23.556;2022-08-01T04:39:56;3.27;;;2.20;;
10465;SDS011;5280;42.600;23.556;2022-08-01T04:42:25;2.40;;;2.17;;
10465;SDS011;5280;42.600;23.556;2022-08-01T04:44:52;9.50;;;8.10;;
10465;SDS011;5280;42.600;23.556;2022-08-01T04:47:19;4.33;;;3.50;;
10465;SDS011;5280;42.600;23.556;2022-08-01T04:49:48;4.47;;;3.20;;
10465;SDS011;5280;42.600;23.556;2022-08-01T04:52:16;4.33;;;3.60;;
10465;SDS011;5280;42.600;23.556;2022-08-01T04:54:44;2.80;;;2.70;;
10465;SDS011;5280;42.600;23.556;2022-08-01T04:57:12;4.70;;;2.73;;
10465;SDS011;5280;42.600;23.556;2022-08-01T04:59:41;2.50;;;2.30;;
10465;SDS011;5280;42.600;23.556;2022-08-01T05:02:12;2.50;;;2.30;;
10465;SDS011;5280;42.600;23.556;2022-08-01T05:04:41;2.33;;;2.20;;
10465;SDS011;5280;42.600;23.556;2022-08-01T05:07:09;3.70;;;2.43;;
10465;SDS011;5280;42.600;23.556;2022-08-01T05:09:36;3.60;;;3.30;;
10465;SDS011;5280;42.600;23.556;2022-08-01T05:12:08;3.83;;;3.07;;
10465;SDS011;5280;42.600;23.556;2022-08-01T05:14:36;5.47;;;3.23;;
10465;SDS011;5280;42.600;23.556;2022-08-01T05:17:04;4.53;;;3.37;;
10465;SDS011;5280;42.600;23.556;2022-08-01T05:19:33;3.00;;;2.80;;
10465;SDS011;5280;42.600;23.556;2022-08-01T05:22:02;2.47;;;2.33;;
10465;SDS011;5280;42.600;23.556;2022-08-01T05:24:30;2.80;;;2.60;;
10465;SDS011;5280;42.600;23.556;2022-08-01T05:26:58;3.93;;;2.70;;
10465;SDS011;5280;42.600;23.556;2022-08-01T05:29:27;2.30;;;2.10;;
10465;SDS011;5280;42.600;23.556;2022-08-01T05:31:54;5.70;;;2.40;;
10465;SDS011;5280;42.600;23.556;2022-08-01T05:34:21;2.83;;;2.50;;
10465;SDS011;5280;42.600;23.556;2022-08-01T05:36:48;2.50;;;2.30;;
10465;SDS011;5280;42.600;23.556;2022-08-01T05:39:15;2.93;;;2.80;;
10465;SDS011;5280;42.600;23.556;2022-08-01T05:41:43;6.13;;;3.30;;
10465;SDS011;5280;42.600;23.556;2022-08-01T05:44:10;3.20;;;2.90;;
10465;SDS011;5280;42.600;23.556;2022-08-01T05:46:38;3.23;;;3.03;;
10465;SDS011;5280;42.600;23.556;2022-08-01T05:49:05;4.20;;;2.97;;
10465;SDS011;5280;42.600;23.556;2022-08-01T05:51:32;4.57;;;3.57;;
10465;SDS011;5280;42.600;23.556;2022-08-01T05:53:59;3.43;;;3.20;;
10465;SDS011;5280;42.600;23.556;2022-08-01T05:56:27;5.23;;;3.37;;
10465;SDS011;5280;42.600;23.556;2022-08-01T05:58:54;2.83;;;2.53;;
10465;SDS011;5280;42.600;23.556;2022-08-01T06:01:21;5.57;;;2.80;;
10465;SDS011;5280;42.600;23.556;2022-08-01T06:03:50;5.53;;;3.37;;
10465;SDS011;5280;42.600;23.556;2022-08-01T06:06:17;3.03;;;2.73;;
10465;SDS011;5280;42.600;23.556;2022-08-01T06:08:44;3.30;;;3.10;;
10465;SDS011;5280;42.600;23.556;2022-08-01T06:11:14;3.93;;;2.80;;
10465;SDS011;5280;42.600;23.556;2022-08-01T06:13:44;4.57;;;3.20;;
10465;SDS011;5280;42.600;23.556;2022-08-01T06:16:11;9.47;;;4.13;;
10465;SDS011;5280;42.600;23.556;2022-08-01T06:18:38;4.90;;;3.00;;
10465;SDS011;5280;42.600;23.556;2022-08-01T06:21:07;3.80;;;2.90;;
10465;SDS011;5280;42.600;23.556;2022-08-01T06:23:34;3.50;;;3.10;;
10465;SDS011;5280;42.600;23.556;2022-08-01T06:26:01;11.10;;;3.50;;
10465;SDS011;5280;42.600;23.556;2022-08-01T06:28:28;2.80;;;2.57;;
10465;SDS011;5280;42.600;23.556;2022-08-01T06:30:55;4.40;;;3.03;;
10465;SDS011;5280;42.600;23.556;2022-08-01T06:33:23;4.13;;;3.00;;
10465;SDS011;5280;42.600;23.556;2022-08-01T06:35:50;3.43;;;2.80;;
10465;SDS011;5280;42.600;23.556;2022-08-01T06:38:20;3.27;;;2.53;;
10465;SDS011;5280;42.600;23.556;2022-08-01T06:40:47;2.77;;;2.57;;
10465;SDS011;5280;42.600;23.556;2022-08-01T06:43:14;4.33;;;2.73;;
10465;SDS011;5280;42.600;23.556;2022-08-01T06:45:45;9.80;;;3.10;;
10465;SDS011;5280;42.600;23.556;2022-08-01T06:48:12;7.57;;;2.90;;
10465;SDS011;5280;42.600;23.556;2022-08-01T06:50:39;3.33;;;2.60;;
10465;SDS011;5280;42.600;23.556;2022-08-01T06:53:06;5.03;;;2.90;;
10465;SDS011;5280;42.600;23.556;2022-08-01T06:55:35;5.00;;;2.63;;
10465;SDS011;5280;42.600;23.556;2022-08-01T06:58:03;3.37;;;2.40;;
10465;SDS011;5280;42.600;23.556;2022-08-01T07:00:38;3.57;;;2.70;;
10465;SDS011;5280;42.600;23.556;2022-08-01T07:03:07;3.87;;;2.40;;
10465;SDS011;5280;42.600;23.556;2022-08-01T07:05:34;4.53;;;2.30;;
10465;SDS011;5280;42.600;23.556;2022-08-01T07:08:01;3.87;;;2.43;;
10465;SDS011;5280;42.600;23.556;2022-08-01T07:10:28;4.10;;;2.30;;
10465;SDS011;5280;42.600;23.556;2022-08-01T07:12:57;4.77;;;2.40;;
10465;SDS011;5280;42.600;23.556;2022-08-01T07:15:24;4.67;;;2.10;;
10465;SDS011;5280;42.600;23.556;2022-08-01T07:17:52;2.40;;;1.80;;
10465;SDS011;5280;42.600;23.556;2022-08-01T07:20:19;5.27;;;2.10;;
10465;SDS011;5280;42.600;23.556;2022-08-01T07:22:49;1.80;;;1.70;;
10465;SDS011;5280;42.600;23.556;2022-08-01T07:25:17;2.00;;;1.90;;
10465;SDS011;5280;42.600;23.556;2022-08-01T07:27:44;2.10;;;1.87;;
10465;SDS011;5280;42.600;23.556;2022-08-01T07:30:12;2.97;;;2.07;;
10465;SDS011;5280;42.600;23.556;2022-08-01T07:32:40;1.77;;;1.67;;
10465;SDS011;5280;42.600;23.556;2022-08-01T07:35:08;2.33;;;1.80;;
10465;SDS011;5280;42.600;23.556;2022-08-01T07:37:38;2.00;;;1.50;;
10465;SDS011;5280;42.600;23.556;2022-08-01T07:40:06;2.10;;;1.90;;
10465;SDS011;5280;42.600;23.556;2022-08-01T07:42:36;2.57;;;2.03;;
10465;SDS011;5280;42.600;23.556;2022-08-01T07:45:03;2.47;;;2.13;;
10465;SDS011;5280;42.600;23.556;2022-08-01T07:47:32;2.77;;;2.07;;
10465;SDS011;5280;42.600;23.556;2022-08-01T07:50:00;4.00;;;2.20;;
10465;SDS011;5280;42.600;23.556;2022-08-01T07:52:28;16.00;;;3.00;;
10465;SDS011;5280;42.600;23.556;2022-08-01T07:54:55;4.40;;;2.33;;
10465;SDS011;5280;42.600;23.556;2022-08-01T07:57:22;2.10;;;1.90;;
10465;SDS011;5280;42.600;23.556;2022-08-01T07:59:50;3.63;;;2.00;;
10465;SDS011;5280;42.600;23.556;2022-08-01T08:02:17;1.90;;;1.80;;
10465;SDS011;5280;42.600;23.556;2022-08-01T08:04:45;1.90;;;1.80;;
10465;SDS011;5280;42.600;23.556;2022-08-01T08:07:12;1.90;;;1.80;;
10465;SDS011;5280;42.600;23.556;2022-08-01T08:09:40;2.27;;;1.70;;
10465;SDS011;5280;42.600;23.556;2022-08-01T08:12:08;3.57;;;2.10;;
10465;SDS011;5280;42.600;23.556;2022-08-01T08:14:35;1.67;;;1.57;;
10465;SDS011;5280;42.600;23.556;2022-08-01T08:17:02;1.93;;;1.83;;
10465;SDS011;5280;42.600;23.556;2022-08-01T08:19:30;1.87;;;1.77;;
10465;SDS011;5280;42.600;23.556;2022-08-01T08:22:00;3.30;;;2.10;;
10465;SDS011;5280;42.600;23.556;2022-08-01T08:24:27;2.10;;;1.90;;
10465;SDS011;5280;42.600;23.556;2022-08-01T08:26:54;2.00;;;1.80;;
10465;SDS011;5280;42.600;23.556;2022-08-01T08:29:23;3.40;;;1.80;;
10465;SDS011;5280;42.600;23.556;2022-08-01T08:31:51;2.67;;;1.83;;
10465;SDS011;5280;42.600;23.556;2022-08-01T08:34:20;3.07;;;2.00;;
10465;SDS011;5280;42.600;23.556;2022-08-01T08:36:47;1.88;;;1.77;;
10465;SDS011;5280;42.600;23.556;2022-08-01T08:39:15;3.47;;;2.37;;
10465;SDS011;5280;42.600;23.556;2022-08-01T08:41:42;4.35;;;2.00;;
10465;SDS011;5280;42.600;23.556;2022-08-01T08:44:09;3.85;;;3.60;;
10465;SDS011;5280;42.600;23.556;2022-08-01T08:46:40;2.40;;;1.90;;
10465;SDS011;5280;42.600;23.556;2022-08-01T08:49:09;2.03;;;1.80;;
10465;SDS011;5280;42.600;23.556;2022-08-01T08:51:42;2.17;;;2.00;;
10465;SDS011;5280;42.600;23.556;2022-08-01T08:54:10;7.40;;;2.22;;
10465;SDS011;5280;42.600;23.556;2022-08-01T08:56:40;2.70;;;2.13;;
10465;SDS011;5280;42.600;23.556;2022-08-01T08:59:10;4.13;;;2.17;;
10465;SDS011;5280;42.600;23.556;2022-08-01T09:01:38;3.50;;;2.00;;
10465;SDS011;5280;42.600;23.556;2022-08-01T09:04:05;5.03;;;2.20;;
10465;SDS011;5280;42.600;23.556;2022-08-01T09:06:35;2.78;;;1.90;;
10465;SDS011;5280;42.600;23.556;2022-08-01T09:09:02;2.55;;;2.35;;
10465;SDS011;5280;42.600;23.556;2022-08-01T09:11:33;2.00;;;1.90;;
10465;SDS011;5280;42.600;23.556;2022-08-01T09:14:03;2.55;;;2.00;;
10465;SDS011;5280;42.600;23.556;2022-08-01T09:16:32;1.90;;;1.80;;
10465;SDS011;5280;42.600;23.556;2022-08-01T09:19:06;2.45;;;1.90;;
10465;SDS011;5280;42.600;23.556;2022-08-01T09:21:35;2.10;;;1.90;;
10465;SDS011;5280;42.600;23.556;2022-08-01T09:24:03;2.15;;;1.95;;
10465;SDS011;5280;42.600;23.556;2022-08-01T09:26:39;3.47;;;2.30;;
10465;SDS011;5280;42.600;23.556;2022-08-01T09:29:09;2.70;;;1.90;;
10465;SDS011;5280;42.600;23.556;2022-08-01T09:31:54;2.25;;;1.67;;
10465;SDS011;5280;42.600;23.556;2022-08-01T09:34:27;1.98;;;1.67;;
10465;SDS011;5280;42.600;23.556;2022-08-01T09:36:57;1.90;;;1.63;;
10465;SDS011;5280;42.600;23.556;2022-08-01T09:39:26;2.83;;;1.85;;
10465;SDS011;5280;42.600;23.556;2022-08-01T09:41:54;1.70;;;1.60;;
10465;SDS011;5280;42.600;23.556;2022-08-01T09:44:37;2.25;;;1.80;;
10465;SDS011;5280;42.600;23.556;2022-08-01T09:47:05;7.20;;;2.50;;
10465;SDS011;5280;42.600;23.556;2022-08-01T09:49:33;4.47;;;1.98;;
10465;SDS011;5280;42.600;23.556;2022-08-01T09:52:10;2.17;;;1.98;;
10465;SDS011;5280;42.600;23.556;2022-08-01T09:54:38;2.47;;;2.10;;
10465;SDS011;5280;42.600;23.556;2022-08-01T09:57:07;2.00;;;1.90;;
10465;SDS011;5280;42.600;23.556;2022-08-01T09:59:40;1.87;;;1.77;;
10465;SDS011;5280;42.600;23.556;2022-08-01T10:02:09;3.43;;;1.73;;
10465;SDS011;5280;42.600;23.556;2022-08-01T10:04:46;1.88;;;1.63;;
10465;SDS011;5280;42.600;23.556;2022-08-01T10:07:14;11.55;;;2.78;;
10465;SDS011;5280;42.600;23.556;2022-08-01T10:09:42;1.87;;;1.77;;
10465;SDS011;5280;42.600;23.556;2022-08-01T10:12:11;3.30;;;1.43;;
10465;SDS011;5280;42.600;23.556;2022-08-01T10:14:41;2.38;;;1.52;;
10465;SDS011;5280;42.600;23.556;2022-08-01T10:17:10;2.43;;;1.60;;
10465;SDS011;5280;42.600;23.556;2022-08-01T10:19:41;2.00;;;1.88;;
10465;SDS011;5280;42.600;23.556;2022-08-01T10:22:09;2.93;;;2.00;;
10465;SDS011;5280;42.600;23.556;2022-08-01T10:24:42;1.73;;;1.63;;
10465;SDS011;5280;42.600;23.556;2022-08-01T10:27:11;4.35;;;2.20;;
10465;SDS011;5280;42.600;23.556;2022-08-01T10:29:43;2.13;;;1.90;;
10465;SDS011;5280;42.600;23.556;2022-08-01T10:32:14;1.83;;;1.73;;
10465;SDS011;5280;42.600;23.556;2022-08-01T10:34:42;2.58;;;1.90;;
10465;SDS011;5280;42.600;23.556;2022-08-01T10:37:09;1.75;;;1.63;;
10465;SDS011;5280;42.600;23.556;2022-08-01T10:39:37;3.50;;;1.75;;
10465;SDS011;5280;42.600;23.556;2022-08-01T10:42:09;2.30;;;2.03;;
10465;SDS011;5280;42.600;23.556;2022-08-01T10:44:37;4.75;;;1.95;;
10465;SDS011;5280;42.600;23.556;2022-08-01T10:47:09;2.05;;;1.92;;
10465;SDS011;5280;42.600;23.556;2022-08-01T10:49:39;2.03;;;1.83;;
10465;SDS011;5280;42.600;23.556;2022-08-01T10:52:14;2.50;;;1.80;;
10465;SDS011;5280;42.600;23.556;2022-08-01T10:54:41;9.60;;;2.33;;
10465;SDS011;5280;42.600;23.556;2022-08-01T10:57:08;4.00;;;1.90;;
10465;SDS011;5280;42.600;23.556;2022-08-01T10:59:47;5.75;;;1.90;;
10465;SDS011;5280;42.600;23.556;2022-08-01T11:05:01;2.50;;;1.90;;
10465;SDS011;5280;42.600;23.556;2022-08-01T11:07:42;1.98;;;1.88;;
10465;SDS011;5280;42.600;23.556;2022-08-01T11:10:16;1.88;;;1.77;;
10465;SDS011;5280;42.600;23.556;2022-08-01T11:12:48;4.65;;;2.42;;
10465;SDS011;5280;42.600;23.556;2022-08-01T11:15:19;2.55;;;2.20;;
10465;SDS011;5280;42.600;23.556;2022-08-01T11:17:55;2.33;;;2.17;;
10465;SDS011;5280;42.600;23.556;2022-08-01T11:20:28;3.67;;;2.10;;
10465;SDS011;5280;42.600;23.556;2022-08-01T11:28:42;3.20;;;1.85;;
10465;SDS011;5280;42.600;23.556;2022-08-01T11:31:27;2.95;;;1.55;;
10465;SDS011;5280;42.600;23.556;2022-08-01T11:33:57;1.38;;;1.38;;
10465;SDS011;5280;42.600;23.556;2022-08-01T11:36:27;1.70;;;1.60;;
10465;SDS011;5280;42.600;23.556;2022-08-01T11:39:16;10.18;;;2.58;;
10465;SDS011;5280;42.600;23.556;2022-08-01T11:41:44;9.50;;;1.90;;
10465;SDS011;5280;42.600;23.556;2022-08-01T11:44:14;3.78;;;1.92;;
10465;SDS011;5280;42.600;23.556;2022-08-01T11:46:48;6.68;;;2.83;;
10465;SDS011;5280;42.600;23.556;2022-08-01T11:49:27;6.75;;;1.88;;
10465;SDS011;5280;42.600;23.556;2022-08-01T11:52:15;1.70;;;1.60;;
10465;SDS011;5280;42.600;23.556;2022-08-01T11:54:44;2.22;;;1.85;;
10465;SDS011;5280;42.600;23.556;2022-08-01T11:57:14;2.25;;;1.90;;
10465;SDS011;5280;42.600;23.556;2022-08-01T11:59:45;1.92;;;1.60;;
10465;SDS011;5280;42.600;23.556;2022-08-01T12:02:18;2.50;;;2.00;;
10465;SDS011;5280;42.600;23.556;2022-08-01T12:04:48;1.83;;;1.70;;
10465;SDS011;5280;42.600;23.556;2022-08-01T12:07:17;3.55;;;2.00;;
10465;SDS011;5280;42.600;23.556;2022-08-01T12:09:45;2.70;;;1.80;;
10465;SDS011;5280;42.600;23.556;2022-08-01T12:12:14;1.80;;;1.70;;
10465;SDS011;5280;42.600;23.556;2022-08-01T12:14:45;2.20;;;1.65;;
10465;SDS011;5280;42.600;23.556;2022-08-01T12:17:27;1.95;;;1.85;;
10465;SDS011;5280;42.600;23.556;2022-08-01T12:20:00;2.10;;;2.00;;
10465;SDS011;5280;42.600;23.556;2022-08-01T12:22:27;1.83;;;1.70;;
10465;SDS011;5280;42.600;23.556;2022-08-01T12:24:55;2.45;;;1.80;;
10465;SDS011;5280;42.600;23.556;2022-08-01T12:27:26;2.72;;;1.95;;
10465;SDS011;5280;42.600;23.556;2022-08-01T12:29:55;2.10;;;2.00;;
10465;SDS011;5280;42.600;23.556;2022-08-01T12:32:23;4.25;;;1.85;;
10465;SDS011;5280;42.600;23.556;2022-08-01T12:34:53;2.10;;;2.00;;
10465;SDS011;5280;42.600;23.556;2022-08-01T12:37:22;3.47;;;2.00;;
10465;SDS011;5280;42.600;23.556;2022-08-01T12:39:50;2.35;;;2.03;;
10465;SDS011;5280;42.600;23.556;2022-08-01T12:42:17;4.63;;;2.53;;
10465;SDS011;5280;42.600;23.556;2022-08-01T12:44:45;2.92;;;2.15;;
10465;SDS011;5280;42.600;23.556;2022-08-01T12:47:16;4.03;;;2.40;;
10465;SDS011;5280;42.600;23.556;2022-08-01T12:49:45;2.75;;;2.10;;
10465;SDS011;5280;42.600;23.556;2022-08-01T12:52:14;14.73;;;3.45;;
10465;SDS011;5280;42.600;23.556;2022-08-01T12:55:02;4.97;;;2.08;;
10465;SDS011;5280;42.600;23.556;2022-08-01T12:57:33;2.65;;;2.00;;
10465;SDS011;5280;42.600;23.556;2022-08-01T13:00:07;2.20;;;2.10;;
10465;SDS011;5280;42.600;23.556;2022-08-01T13:02:36;3.88;;;2.35;;
10465;SDS011;5280;42.600;23.556;2022-08-01T13:05:03;2.47;;;2.10;;
10465;SDS011;5280;42.600;23.556;2022-08-01T13:07:40;2.45;;;2.35;;
10465;SDS011;5280;42.600;23.556;2022-08-01T13:10:11;4.18;;;1.90;;
10465;SDS011;5280;42.600;23.556;2022-08-01T13:12:39;3.63;;;2.25;;
10465;SDS011;5280;42.600;23.556;2022-08-01T13:18:00;2.10;;;2.00;;
10465;SDS011;5280;42.600;23.556;2022-08-01T13:20:29;2.33;;;2.13;;
10465;SDS011;5280;42.600;23.556;2022-08-01T13:25:50;2.50;;;2.30;;
10465;SDS011;5280;42.600;23.556;2022-08-01T13:28:19;2.50;;;2.30;;
10465;SDS011;5280;42.600;23.556;2022-08-01T13:30:57;2.70;;;1.98;;
10465;SDS011;5280;42.600;23.556;2022-08-01T13:33:26;2.58;;;2.38;;
10465;SDS011;5280;42.600;23.556;2022-08-01T13:35:55;2.33;;;2.03;;
10465;SDS011;5280;42.600;23.556;2022-08-01T13:38:23;2.10;;;2.00;;
10465;SDS011;5280;42.600;23.556;2022-08-01T13:41:05;3.70;;;1.95;;
10465;SDS011;5280;42.600;23.556;2022-08-01T13:43:32;5.95;;;2.10;;
10465;SDS011;5280;42.600;23.556;2022-08-01T13:45:59;2.13;;;2.03;;
10465;SDS011;5280;42.600;23.556;2022-08-01T13:48:27;2.80;;;2.58;;
10465;SDS011;5280;42.600;23.556;2022-08-01T13:50:54;2.13;;;2.03;;
10465;SDS011;5280;42.600;23.556;2022-08-01T13:53:22;5.18;;;2.20;;
10465;SDS011;5280;42.600;23.556;2022-08-01T13:55:49;1.88;;;1.77;;
10465;SDS011;5280;42.600;23.556;2022-08-01T13:58:17;2.58;;;2.25;;
10465;SDS011;5280;42.600;23.556;2022-08-01T14:00:45;5.03;;;2.10;;
10465;SDS011;5280;42.600;23.556;2022-08-01T14:03:12;23.67;;;4.22;;
10465;SDS011;5280;42.600;23.556;2022-08-01T14:05:39;2.08;;;1.98;;
10465;SDS011;5280;42.600;23.556;2022-08-01T14:08:06;2.85;;;2.35;;
10465;SDS011;5280;42.600;23.556;2022-08-01T14:10:34;2.15;;;1.90;;
10465;SDS011;5280;42.600;23.556;2022-08-01T14:13:00;2.17;;;2.05;;
10465;SDS011;5280;42.600;23.556;2022-08-01T14:15:29;2.15;;;2.05;;
10465;SDS011;5280;42.600;23.556;2022-08-01T14:17:57;2.10;;;2.00;;
10465;SDS011;5280;42.600;23.556;2022-08-01T14:20:27;3.17;;;2.00;;
10465;SDS011;5280;42.600;23.556;2022-08-01T14:22:54;13.60;;;9.75;;
10465;SDS011;5280;42.600;23.556;2022-08-01T14:25:21;2.65;;;2.00;;
10465;SDS011;5280;42.600;23.556;2022-08-01T14:27:48;2.00;;;1.90;;
10465;SDS011;5280;42.600;23.556;2022-08-01T14:30:15;1.90;;;1.80;;
10465;SDS011;5280;42.600;23.556;2022-08-01T14:32:49;4.72;;;2.00;;
10465;SDS011;5280;42.600;23.556;2022-08-01T14:35:18;2.15;;;2.05;;
10465;SDS011;5280;42.600;23.556;2022-08-01T14:37:45;4.20;;;2.05;;
10465;SDS011;5280;42.600;23.556;2022-08-01T14:40:12;2.78;;;2.17;;
10465;SDS011;5280;42.600;23.556;2022-08-01T14:42:41;2.08;;;1.90;;
10465;SDS011;5280;42.600;23.556;2022-08-01T14:45:12;2.10;;;1.70;;
10465;SDS011;5280;42.600;23.556;2022-08-01T14:47:40;2.50;;;2.28;;
10465;SDS011;5280;42.600;23.556;2022-08-01T14:50:11;2.22;;;1.95;;
10465;SDS011;5280;42.600;23.556;2022-08-01T14:52:40;5.78;;;2.25;;
10465;SDS011;5280;42.600;23.556;2022-08-01T14:55:10;3.65;;;2.10;;
10465;SDS011;5280;42.600;23.556;2022-08-01T14:57:40;1.90;;;1.80;;
10465;SDS011;5280;42.600;23.556;2022-08-01T15:00:08;2.45;;;2.25;;
10465;SDS011;5280;42.600;23.556;2022-08-01T15:02:38;2.05;;;1.90;;
10465;SDS011;5280;42.600;23.556;2022-08-01T15:05:06;2.42;;;1.90;;
10465;SDS011;5280;42.600;23.556;2022-08-01T15:07:35;21.35;;;3.55;;
10465;SDS011;5280;42.600;23.556;2022-08-01T15:10:03;2.17;;;2.08;;
10465;SDS011;5280;42.600;23.556;2022-08-01T15:12:31;2.33;;;2.10;;
10465;SDS011;5280;42.600;23.556;2022-08-01T15:14:59;4.28;;;2.25;;
10465;SDS011;5280;42.600;23.556;2022-08-01T15:17:26;2.50;;;2.30;;